Time;durP1;ratioP1;P1;durP2;ratioP2;P2;SDS_P1;SDS_P2;PMS_P1;PMS_P2;Temp;Humidity;BMP_temperature;BMP_pressure;BME280_temperature;BME280_humidity;BME280_pressure;Samples;Min_cycle;Max_cycle;Signal;HPM_P1;HPM_P2
2021/01/10 00:02:26;;;;;;;146.25;71.90;;;;;;;0.26;81.07;99514.15;119229;1150;65201;-80
2021/01/10 00:04:53;;;;;;;146.50;71.53;;;;;;;0.24;81.14;99513.33;119242;1150;65114;-80
2021/01/10 00:07:24;;;;;;;131.27;67.90;;;;;;;0.25;81.16;99525.53;118998;1151;65742;-80
2021/01/10 00:09:51;;;;;;;130.50;66.60;;;;;;;0.26;80.90;99526.39;119259;1150;65121;-80
2021/01/10 00:12:25;;;;;;;137.00;73.00;;;;;;;0.24;81.27;99525.55;119011;1151;65117;-79
2021/01/10 00:14:53;;;;;;;159.70;85.07;;;;;;;0.23;80.87;99529.08;119144;1150;65167;-79
2021/01/10 00:17:19;;;;;;;168.53;87.57;;;;;;;0.23;80.86;99526.45;119263;1150;65529;-79
2021/01/10 00:19:47;;;;;;;139.90;77.83;;;;;;;0.21;80.86;99531.70;119217;1151;65102;-79
2021/01/10 00:22:15;;;;;;;151.93;76.87;;;;;;;0.22;81.40;99528.22;119260;1150;65236;-80
2021/01/10 00:24:42;;;;;;;159.27;82.00;;;;;;;0.21;80.92;99535.22;119256;1151;65124;-80
2021/01/10 00:27:15;;;;;;;187.33;94.70;;;;;;;0.25;81.17;99543.03;118985;1151;65277;-79
2021/01/10 00:29:44;;;;;;;166.30;87.57;;;;;;;0.27;80.81;99536.87;119245;1151;65050;-79
2021/01/10 00:32:11;;;;;;;157.78;82.50;;;;;;;0.27;80.84;99542.11;119006;1151;65228;-79
2021/01/10 00:34:38;;;;;;;153.40;81.15;;;;;;;0.24;80.90;99536.92;119241;1150;65137;-79
2021/01/10 00:37:10;;;;;;;162.87;87.20;;;;;;;0.23;81.46;99545.66;119218;1151;65105;-79
2021/01/10 00:39:36;;;;;;;155.50;85.17;;;;;;;0.23;81.36;99540.42;119207;1150;65094;-79
2021/01/10 00:42:11;;;;;;;154.50;81.87;;;;;;;0.23;80.80;99545.66;119230;1150;65513;-80
2021/01/10 00:44:37;;;;;;;146.10;80.03;;;;;;;0.23;80.79;99545.66;119259;1150;65133;-79
2021/01/10 00:47:04;;;;;;;137.40;77.00;;;;;;;0.19;81.52;99544.00;119244;1150;65137;-79
2021/01/10 00:49:32;;;;;;;148.70;78.70;;;;;;;0.16;81.48;99551.91;118943;1151;65296;-80
2021/01/10 00:51:59;;;;;;;154.80;83.75;;;;;;;0.17;81.57;99544.00;119204;1150;65137;-80
2021/01/10 00:54:27;;;;;;;164.60;89.97;;;;;;;0.19;81.43;99546.62;118993;1150;65175;-80
2021/01/10 00:56:54;;;;;;;165.20;88.07;;;;;;;0.18;80.94;99556.21;119233;1150;65133;-82
2021/01/10 00:59:20;;;;;;;152.20;79.60;;;;;;;0.18;81.33;99556.21;119284;1150;65094;-80
2021/01/10 01:01:47;;;;;;;148.97;80.97;;;;;;;0.19;81.76;99555.34;119294;1150;65140;-80
2021/01/10 01:04:14;;;;;;;165.90;88.40;;;;;;;0.17;81.17;99557.11;119251;1151;65129;-80
2021/01/10 01:06:40;;;;;;;178.10;89.57;;;;;;;0.19;81.52;99559.72;119057;1151;65172;-79
2021/01/10 01:09:07;;;;;;;176.50;90.70;;;;;;;0.18;81.06;99560.59;119310;1151;65165;-80
2021/01/10 01:11:35;;;;;;;156.03;82.73;;;;;;;0.17;81.18;99559.73;119311;1150;65124;-80
2021/01/10 01:14:03;;;;;;;143.37;76.93;;;;;;;0.14;80.96;99562.41;119271;1149;65227;-80
2021/01/10 01:16:30;;;;;;;156.10;81.13;;;;;;;0.16;81.58;99560.64;119280;1150;65220;-80
2021/01/10 01:18:57;;;;;;;156.43;83.30;;;;;;;0.17;81.44;99562.35;119323;1150;65202;-80
2021/01/10 01:21:23;;;;;;;163.60;87.20;;;;;;;0.19;81.43;99563.20;119044;1151;65101;-79
2021/01/10 01:23:50;;;;;;;165.50;89.47;;;;;;;0.21;81.74;99552.67;118985;1151;65047;-81
2021/01/10 01:26:22;;;;;;;167.67;84.67;;;;;;;0.24;81.67;99557.89;119108;1151;65114;-80
2021/01/10 01:28:50;;;;;;;176.93;90.23;;;;;;;0.27;81.79;99555.22;118877;1151;65145;-80
2021/01/10 01:31:19;;;;;;;165.93;86.20;;;;;;;0.24;81.65;99549.14;118955;1151;65352;-80
2021/01/10 01:33:46;;;;;;;167.20;89.70;;;;;;;0.27;81.44;99541.25;119064;1150;65114;-80
2021/01/10 01:36:18;;;;;;;168.37;86.07;;;;;;;0.32;81.61;99547.29;119078;1151;65124;-79
2021/01/10 01:38:46;;;;;;;160.83;81.43;;;;;;;0.28;80.98;99559.56;119312;1151;65118;-80
2021/01/10 01:41:12;;;;;;;166.37;85.90;;;;;;;0.25;81.24;99556.13;119312;1151;65200;-81
2021/01/10 01:43:40;;;;;;;148.90;78.70;;;;;;;0.22;81.42;99554.42;119311;1151;65124;-81
2021/01/10 01:46:09;;;;;;;142.17;73.07;;;;;;;0.20;80.91;99553.58;119313;1149;65169;-81
2021/01/10 01:48:38;;;;;;;148.43;79.67;;;;;;;0.17;81.48;99556.25;119021;1151;65140;-80
2021/01/10 01:51:05;;;;;;;146.02;79.62;;;;;;;0.15;81.56;99556.27;119266;1150;64109;-80
2021/01/10 01:53:31;;;;;;;145.30;74.47;;;;;;;0.12;81.54;99553.69;119005;1149;65235;-80
2021/01/10 01:55:58;;;;;;;147.20;75.45;;;;;;;0.08;81.62;99554.65;119277;1150;65187;-81
2021/01/10 01:58:27;;;;;;;140.13;73.13;;;;;;;0.06;81.58;99558.19;119346;1150;65066;-79
2021/01/10 02:00:54;;;;;;;138.33;73.27;;;;;;;0.08;81.70;99553.76;119242;1150;65149;-79
2021/01/10 02:03:32;;;;;;;138.13;74.53;;;;;;;0.08;81.50;99554.65;118968;1150;65120;-80
2021/01/10 02:06:07;;;;;;;148.90;77.60;;;;;;;0.10;81.37;99547.61;119316;1151;65721;-80
2021/01/10 02:08:36;;;;;;;135.53;73.90;;;;;;;0.10;81.13;99551.98;119283;1150;65124;-80
2021/01/10 02:11:06;;;;;;;128.97;70.50;;;;;;;0.09;81.75;99552.89;119363;1151;65147;-80
2021/01/10 02:13:34;;;;;;;135.17;71.73;;;;;;;0.13;81.64;99551.94;119382;1150;65140;-81
2021/01/10 02:16:02;;;;;;;140.10;74.05;;;;;;;0.13;82.03;99551.94;119208;1150;65204;-80
2021/01/10 02:18:31;;;;;;;147.33;75.50;;;;;;;0.10;81.41;99552.84;119237;1150;65281;-81
2021/01/10 02:21:04;;;;;;;148.67;75.87;;;;;;;0.08;81.73;99557.27;119266;1151;65112;-82
2021/01/10 02:23:32;;;;;;;133.73;70.80;;;;;;;0.03;81.47;99553.86;119232;1151;65124;-80
2021/01/10 02:26:02;;;;;;;135.43;73.57;;;;;;;0.07;81.58;99557.28;119237;1150;65128;-81
2021/01/10 02:28:30;;;;;;;137.75;74.53;;;;;;;0.09;81.57;99553.75;119267;1150;65121;-79
2021/01/10 02:30:58;;;;;;;143.63;79.67;;;;;;;0.10;82.05;99554.61;119223;1151;65238;-80
2021/01/10 02:33:42;;;;;;;143.87;74.53;;;;;;;0.07;81.98;99554.66;119279;1151;65194;-79
2021/01/10 02:36:19;;;;;;;137.27;71.10;;;;;;;0.05;81.58;99553.81;119268;1151;65111;-80
2021/01/10 02:39:06;;;;;;;126.00;67.35;;;;;;;0.03;81.84;99558.20;119273;1150;65082;-81
2021/01/10 02:41:55;;;;;;;127.30;68.93;;;;;;;0.03;81.89;99552.96;119084;1151;65066;-79
2021/01/10 02:44:31;;;;;;;127.13;67.93;;;;;;;0.00;81.87;99564.39;119325;1150;65123;-80
2021/01/10 02:46:58;;;;;;;133.00;70.90;;;;;;;-0.04;81.45;99555.69;119337;1151;65127;-80
2021/01/10 02:49:24;;;;;;;119.77;67.10;;;;;;;-0.03;82.26;99554.81;119030;1151;65283;-79
2021/01/10 02:51:51;;;;;;;115.35;63.50;;;;;;;0.02;81.87;99562.58;119234;1150;65124;-80
2021/01/10 02:54:19;;;;;;;108.00;59.60;;;;;;;0.02;81.72;99567.83;119306;1150;65117;-79
2021/01/10 02:57:02;;;;;;;109.73;61.23;;;;;;;0.00;81.73;99567.00;119299;1150;65095;-79
2021/01/10 02:59:32;;;;;;;111.17;63.97;;;;;;;0.02;82.22;99569.59;118768;1150;65220;-79
2021/01/10 03:02:02;;;;;;;108.93;61.10;;;;;;;-0.03;81.47;99560.05;119222;1150;65117;-81
2021/01/10 03:04:30;;;;;;;106.67;57.53;;;;;;;-0.06;81.42;99561.83;119290;1149;65111;-81
2021/01/10 03:06:59;;;;;;;101.90;57.30;;;;;;;-0.11;82.09;99555.80;118958;1151;65113;-79
2021/01/10 03:09:26;;;;;;;107.73;60.30;;;;;;;-0.13;81.41;99558.45;119283;1150;65079;-80
2021/01/10 03:11:56;;;;;;;104.83;57.27;;;;;;;-0.12;81.54;99556.70;119062;1151;65124;-79
2021/01/10 03:14:22;;;;;;;110.35;61.25;;;;;;;-0.12;82.06;99564.55;118707;1150;65216;-81
2021/01/10 03:16:50;;;;;;;103.00;57.00;;;;;;;-0.14;81.83;99556.70;118634;1150;65040;-81
2021/01/10 03:19:17;;;;;;;108.90;58.87;;;;;;;-0.11;82.09;99550.56;118659;1150;65124;-78
2021/01/10 03:21:43;;;;;;;111.65;60.40;;;;;;;-0.13;81.65;99550.59;118398;1150;65159;-79
2021/01/10 03:24:10;;;;;;;111.30;62.80;;;;;;;-0.17;81.98;99554.14;118620;1150;65150;-79
2021/01/10 03:26:36;;;;;;;113.30;61.10;;;;;;;-0.17;82.02;99548.89;118628;1150;65181;-79
2021/01/10 03:29:02;;;;;;;105.13;58.07;;;;;;;-0.18;82.09;99552.41;118635;1150;65091;-81
2021/01/10 03:31:30;;;;;;;99.93;58.43;;;;;;;-0.23;82.12;99549.86;118619;1150;65214;-80
2021/01/10 03:33:56;;;;;;;113.03;61.77;;;;;;;-0.18;82.21;99554.17;118606;1150;65129;-79
2021/01/10 03:36:22;;;;;;;105.87;60.60;;;;;;;-0.14;82.14;99553.23;118378;1150;65133;-79
2021/01/10 03:38:49;;;;;;;113.45;62.50;;;;;;;-0.19;81.41;99550.66;118601;1150;65102;-79
2021/01/10 03:41:15;;;;;;;109.77;58.63;;;;;;;-0.25;81.66;99551.63;118647;1150;65089;-81
2021/01/10 03:43:42;;;;;;;103.90;59.85;;;;;;;-0.28;82.21;99549.05;118403;1151;65474;-78
2021/01/10 03:46:08;;;;;;;110.87;62.73;;;;;;;-0.30;81.46;99549.96;118630;1151;65162;-81
2021/01/10 03:48:36;;;;;;;107.37;60.53;;;;;;;-0.30;82.29;99552.58;118914;1150;65124;-79
2021/01/10 03:51:03;;;;;;;107.10;59.53;;;;;;;-0.31;81.97;99556.09;118720;1150;65120;-80
2021/01/10 03:53:29;;;;;;;104.47;59.23;;;;;;;-0.33;82.24;99552.63;118852;1150;65101;-79
2021/01/10 03:55:55;;;;;;;104.07;58.95;;;;;;;-0.34;82.07;99556.11;118403;1151;65120;-79
2021/01/10 03:58:21;;;;;;;103.80;60.07;;;;;;;-0.32;81.83;99556.97;118457;1151;65268;-79
2021/01/10 04:00:48;;;;;;;120.23;64.07;;;;;;;-0.35;81.91;99557.02;118981;1149;65126;-78
2021/01/10 04:03:14;;;;;;;123.83;65.57;;;;;;;-0.39;81.75;99561.44;118420;1151;65146;-78
2021/01/10 04:05:40;;;;;;;115.63;61.80;;;;;;;-0.42;81.55;99560.59;118661;1150;65124;-79
2021/01/10 04:08:07;;;;;;;111.67;62.07;;;;;;;-0.45;81.77;99565.01;118635;1151;65105;-79
2021/01/10 04:10:33;;;;;;;111.23;61.23;;;;;;;-0.48;82.17;99565.02;118989;1150;65242;-80
2021/01/10 04:13:00;;;;;;;120.87;63.77;;;;;;;-0.53;82.09;99561.59;119226;1151;65197;-79
2021/01/10 04:15:26;;;;;;;114.87;60.43;;;;;;;-0.58;82.28;99549.45;119192;1150;65150;-79
2021/01/10 04:17:53;;;;;;;111.95;61.00;;;;;;;-0.60;82.15;99557.34;119018;1151;65278;-79
2021/01/10 04:20:19;;;;;;;106.80;60.07;;;;;;;-0.63;82.27;99556.50;119228;1150;65124;-79
2021/01/10 04:22:45;;;;;;;115.27;60.73;;;;;;;-0.66;82.13;99552.16;119015;1151;65182;-79
2021/01/10 04:25:12;;;;;;;107.17;59.77;;;;;;;-0.71;82.09;99554.87;119242;1150;65118;-80
2021/01/10 04:27:38;;;;;;;105.57;57.80;;;;;;;-0.77;81.91;99557.53;119013;1150;65436;-79
2021/01/10 04:30:06;;;;;;;102.40;56.80;;;;;;;-0.84;82.60;99558.52;119231;1151;65129;-79
2021/01/10 04:32:32;;;;;;;101.30;59.20;;;;;;;-0.85;82.40;99558.52;119199;1151;65104;-79
2021/01/10 04:34:59;;;;;;;103.15;59.88;;;;;;;-0.88;82.55;99559.42;118981;1150;65268;-79
2021/01/10 04:37:25;;;;;;;108.55;58.65;;;;;;;-0.92;81.97;99555.98;119221;1149;65124;-79
2021/01/10 04:39:53;;;;;;;121.50;64.90;;;;;;;-0.96;82.20;99556.03;119207;1150;65201;-79
2021/01/10 04:42:19;;;;;;;107.70;60.75;;;;;;;-0.97;82.35;99555.17;118788;1151;65154;-80
2021/01/10 04:44:46;;;;;;;113.03;62.67;;;;;;;-0.97;82.36;99559.55;118519;1151;65211;-79
2021/01/10 04:47:14;;;;;;;135.27;75.37;;;;;;;-0.95;82.59;99558.64;119177;1151;65147;-81
2021/01/10 04:49:41;;;;;;;130.47;71.47;;;;;;;-0.91;82.36;99552.47;118976;1151;65709;-81
2021/01/10 04:52:08;;;;;;;124.77;69.93;;;;;;;-0.86;83.09;99556.80;118982;1150;65147;-79
2021/01/10 04:54:41;;;;;;;132.40;74.00;;;;;;;-0.84;82.88;99549.77;119291;1150;65217;-79
2021/01/10 04:57:13;;;;;;;123.27;65.27;;;;;;;-0.91;82.70;99556.84;119230;1150;65151;-80
2021/01/10 04:59:41;;;;;;;120.13;65.90;;;;;;;-1.02;83.01;99561.34;119270;1150;65136;-80
2021/01/10 05:02:09;;;;;;;116.93;65.20;;;;;;;-1.19;82.72;99561.50;119318;1150;65146;-80
2021/01/10 05:04:36;;;;;;;111.33;65.87;;;;;;;-1.32;82.94;99573.83;119272;1150;65121;-80
2021/01/10 05:07:03;;;;;;;118.27;67.07;;;;;;;-1.41;82.50;99577.40;119221;1150;65135;-80
2021/01/10 05:09:36;;;;;;;117.43;64.57;;;;;;;-1.51;82.39;99575.75;119265;1150;65133;-79
2021/01/10 05:12:03;;;;;;;112.60;67.70;;;;;;;-1.59;83.05;99573.20;118985;1151;65079;-79
2021/01/10 05:14:29;;;;;;;109.80;65.10;;;;;;;-1.60;83.01;99583.68;119218;1150;65104;-78
2021/01/10 05:17:02;;;;;;;119.00;66.50;;;;;;;-1.65;82.93;99580.23;119219;1151;65111;-78
2021/01/10 05:19:29;;;;;;;117.40;66.97;;;;;;;-1.72;83.11;99581.16;119236;1150;65111;-80
2021/01/10 05:21:57;;;;;;;116.13;68.03;;;;;;;-1.78;83.21;99574.23;119219;1150;65201;-79
2021/01/10 05:24:23;;;;;;;116.25;66.20;;;;;;;-1.83;83.51;99574.27;119248;1150;65147;-79
2021/01/10 05:26:50;;;;;;;127.00;68.20;;;;;;;-1.87;83.87;99582.13;119227;1150;65121;-79
2021/01/10 05:29:17;;;;;;;128.97;72.37;;;;;;;-1.87;84.17;99576.91;119176;1150;65034;-79
2021/01/10 05:31:45;;;;;;;136.97;81.57;;;;;;;-1.83;83.50;99583.85;118752;1150;65089;-79
2021/01/10 05:34:17;;;;;;;128.40;75.73;;;;;;;-1.83;84.14;99582.10;118663;1150;65509;-80
2021/01/10 05:36:44;;;;;;;141.60;77.60;;;;;;;-1.83;83.63;99578.62;118776;1150;65194;-81
2021/01/10 05:39:30;;;;;;;129.27;77.37;;;;;;;-1.85;84.13;99580.38;118829;1151;65159;-79
2021/01/10 05:41:59;;;;;;;127.67;75.00;;;;;;;-1.91;83.57;99586.52;119141;1150;65525;-79
2021/01/10 05:44:27;;;;;;;137.37;75.27;;;;;;;-1.94;84.31;99573.48;119004;1150;65223;-81
2021/01/10 05:47:05;;;;;;;114.25;66.30;;;;;;;-2.00;83.79;99578.77;118744;1150;65169;-80
2021/01/10 05:49:32;;;;;;;125.03;68.43;;;;;;;-2.08;83.20;99594.48;118943;1150;65248;-79
2021/01/10 05:52:10;;;;;;;120.80;69.73;;;;;;;-2.13;83.59;99592.74;119239;1150;65121;-80
2021/01/10 05:54:44;;;;;;;114.77;63.50;;;;;;;-2.19;83.38;99591.04;119042;1150;65193;-80
2021/01/10 05:57:11;;;;;;;124.80;69.67;;;;;;;-2.25;83.93;99588.47;118635;1150;65028;-78
2021/01/10 05:59:47;;;;;;;119.30;70.45;;;;;;;-2.31;83.32;99591.13;118647;1150;65131;-79
2021/01/10 06:02:27;;;;;;;109.97;64.67;;;;;;;-2.37;83.90;99599.86;119269;1150;65274;-80
2021/01/10 06:05:20;;;;;;;120.50;64.90;;;;;;;-2.38;83.41;99605.08;119215;1150;65129;-80
2021/01/10 06:07:48;;;;;;;115.40;67.25;;;;;;;-2.42;83.81;99601.62;119243;1150;65118;-80
2021/01/10 06:10:29;;;;;;;119.90;68.03;;;;;;;-2.49;84.06;99598.16;119001;1151;65228;-80
2021/01/10 06:13:06;;;;;;;113.10;66.80;;;;;;;-2.53;83.20;99603.39;118766;1151;65315;-81
2021/01/10 06:15:34;;;;;;;125.80;75.67;;;;;;;-2.58;83.32;99603.44;119167;1150;65284;-80
2021/01/10 06:18:02;;;;;;;126.43;72.23;;;;;;;-2.60;83.81;99606.92;118977;1150;65133;-79
2021/01/10 06:20:31;;;;;;;124.43;70.23;;;;;;;-2.64;83.36;99606.05;119187;1150;65101;-79
2021/01/10 06:23:00;;;;;;;125.03;70.20;;;;;;;-2.69;83.49;99607.80;119287;1150;65209;-81
2021/01/10 06:25:31;;;;;;;121.20;69.82;;;;;;;-2.71;83.51;99601.75;118891;1150;65121;-80
2021/01/10 06:28:08;;;;;;;117.40;67.55;;;;;;;-2.77;84.05;99605.22;118517;1151;65240;-83
2021/01/10 06:30:37;;;;;;;122.35;72.00;;;;;;;-2.81;84.23;99602.66;118732;1151;65150;-83
2021/01/10 06:33:08;;;;;;;119.67;70.47;;;;;;;-2.80;83.68;99610.45;118560;1151;65169;-83
2021/01/10 06:35:37;;;;;;;124.73;70.90;;;;;;;-2.78;84.30;99613.93;119256;1150;65108;-83
2021/01/10 06:38:06;;;;;;;116.97;65.20;;;;;;;-2.80;83.77;99614.81;118805;1150;65174;-81
2021/01/10 06:40:34;;;;;;;113.80;65.40;;;;;;;-2.82;83.53;99614.80;119089;1150;65126;-82
2021/01/10 06:43:03;;;;;;;113.90;67.23;;;;;;;-2.82;83.58;99624.38;118726;1150;65101;-82
2021/01/10 06:45:35;;;;;;;109.37;61.93;;;;;;;-2.82;83.78;99625.23;118830;1150;65097;-81
2021/01/10 06:48:05;;;;;;;110.00;65.37;;;;;;;-2.84;83.84;99628.72;119106;1151;65175;-82
2021/01/10 06:50:32;;;;;;;119.25;69.15;;;;;;;-2.89;83.41;99631.36;119330;1150;65067;-82
2021/01/10 06:53:07;;;;;;;126.00;70.20;;;;;;;-2.94;83.40;99628.75;119342;1150;65326;-82
2021/01/10 06:55:34;;;;;;;121.30;67.65;;;;;;;-2.95;83.84;99637.46;119180;1150;65136;-82
2021/01/10 06:58:10;;;;;;;130.13;73.57;;;;;;;-2.94;83.84;99628.75;118498;1151;65231;-83
2021/01/10 07:00:55;;;;;;;122.77;74.53;;;;;;;-2.91;84.18;99631.34;118709;1151;65117;-82
2021/01/10 07:03:23;;;;;;;126.90;70.90;;;;;;;-2.90;83.58;99635.71;119029;1150;65214;-82
2021/01/10 07:05:56;;;;;;;114.65;67.40;;;;;;;-2.84;83.98;99640.05;119178;1150;65056;-82
2021/01/10 07:08:42;;;;;;;122.90;71.45;;;;;;;-2.90;84.20;99642.64;118759;1151;65073;-83
2021/01/10 07:11:21;;;;;;;133.70;73.27;;;;;;;-2.90;83.79;99640.03;119324;1150;65117;-83
2021/01/10 07:13:49;;;;;;;156.25;93.85;;;;;;;-2.89;83.86;99642.66;119306;1151;65121;-81
2021/01/10 07:16:21;;;;;;;146.77;85.40;;;;;;;-2.83;84.26;99643.52;119082;1150;65105;-81
2021/01/10 07:18:55;;;;;;;138.50;80.35;;;;;;;-2.77;83.86;99646.95;118676;1151;65117;-83
2021/01/10 07:21:32;;;;;;;143.25;83.95;;;;;;;-2.73;83.91;99648.70;119189;1150;65227;-83
2021/01/10 07:24:14;;;;;;;154.70;87.47;;;;;;;-2.69;83.84;99654.77;118849;1150;65190;-81
2021/01/10 07:26:41;;;;;;;146.07;86.23;;;;;;;-2.63;84.22;99654.77;118674;1150;65193;-83
2021/01/10 07:29:27;;;;;;;161.65;92.70;;;;;;;-2.53;84.17;99651.23;119072;1150;65213;-83
2021/01/10 07:32:01;;;;;;;175.77;98.33;;;;;;;-2.39;84.27;99645.98;119022;1151;65669;-82
2021/01/10 07:34:30;;;;;;;185.97;102.17;;;;;;;-2.32;84.45;99652.89;118694;1150;65166;-81
2021/01/10 07:37:02;;;;;;;189.13;102.33;;;;;;;-2.19;83.54;99652.84;118809;1150;65111;-81
2021/01/10 07:39:35;;;;;;;192.63;104.33;;;;;;;-2.17;83.19;99646.73;118744;1150;65111;-81
2021/01/10 07:42:11;;;;;;;191.17;102.07;;;;;;;-2.13;83.69;99661.53;118798;1151;65111;-84
2021/01/10 07:44:47;;;;;;;184.47;105.17;;;;;;;-2.13;83.31;99660.63;118841;1150;65673;-83
2021/01/10 07:47:15;;;;;;;188.55;105.30;;;;;;;-2.12;83.43;99658.03;119149;1150;66773;-84
2021/01/10 07:49:56;;;;;;;156.67;93.83;;;;;;;-1.96;84.33;99657.95;119072;1151;65099;-82
2021/01/10 07:52:41;;;;;;;174.53;100.43;;;;;;;-1.82;83.79;99658.72;119316;1150;65037;-83
2021/01/10 07:55:20;;;;;;;184.43;107.33;;;;;;;-1.81;83.14;99661.34;119064;1150;65143;-83
2021/01/10 07:58:14;;;;;;;197.23;111.07;;;;;;;-1.83;83.24;99663.09;119338;1150;65139;-83
2021/01/10 08:00:46;;;;;;;202.60;113.87;;;;;;;-1.78;83.29;99661.31;119181;1151;65095;-83
2021/01/10 08:03:27;;;;;;;189.63;107.03;;;;;;;-1.73;83.84;99663.91;119297;1151;65124;-83
2021/01/10 08:06:00;;;;;;;187.00;108.63;;;;;;;-1.67;83.65;99665.61;119280;1150;65153;-83
2021/01/10 08:08:37;;;;;;;169.55;97.20;;;;;;;-1.60;84.13;99665.56;119050;1151;65133;-84
2021/01/10 08:11:04;;;;;;;185.70;109.45;;;;;;;-1.56;83.69;99662.03;119264;1151;65102;-82
2021/01/10 08:13:45;;;;;;;210.33;117.33;;;;;;;-1.45;83.30;99663.70;119300;1150;65121;-81
2021/01/10 08:16:34;;;;;;;204.83;110.63;;;;;;;-1.39;83.21;99667.15;119067;1151;65191;-82
2021/01/10 08:19:03;;;;;;;199.10;114.35;;;;;;;-1.37;82.97;99673.24;119093;1150;65220;-82
2021/01/10 08:21:31;;;;;;;200.85;116.08;;;;;;;-1.32;83.51;99670.56;118973;1151;65118;-82
2021/01/10 08:23:57;;;;;;;213.00;119.83;;;;;;;-1.26;83.10;99675.77;119074;1149;65102;-81
2021/01/10 08:26:25;;;;;;;224.23;125.17;;;;;;;-1.19;83.19;99679.18;119076;1151;65164;-81
2021/01/10 08:28:54;;;;;;;229.97;130.93;;;;;;;-1.11;83.39;99675.64;119355;1151;65098;-82
2021/01/10 08:31:23;;;;;;;243.30;132.37;;;;;;;-1.05;83.01;99673.82;119082;1150;65137;-82
2021/01/10 08:34:13;;;;;;;245.15;132.20;;;;;;;-1.00;83.16;99686.01;119270;1150;65121;-82
2021/01/10 08:36:44;;;;;;;;;;;;;;;-0.93;83.30;99681.57;119027;1151;66215;-81
2021/01/10 08:39:11;;;;;;;208.20;117.45;;;;;;;-0.88;83.16;99690.25;119050;1151;65153;-82
2021/01/10 08:41:40;;;;;;;213.17;121.00;;;;;;;-0.83;82.97;99683.22;119123;1151;65200;-82
2021/01/10 08:44:10;;;;;;;229.53;125.77;;;;;;;-0.81;83.51;99691.93;119098;1151;65101;-82
2021/01/10 08:46:40;;;;;;;227.90;128.73;;;;;;;-0.76;83.38;99690.14;119180;1150;65073;-83
2021/01/10 08:49:06;;;;;;;215.50;123.17;;;;;;;-0.72;83.22;99693.58;118970;1150;65048;-83
2021/01/10 08:51:35;;;;;;;199.00;117.30;;;;;;;-0.68;83.56;99690.92;118773;1150;65200;-82
2021/01/10 08:54:14;;;;;;;187.60;109.93;;;;;;;-0.61;83.13;99690.85;118756;1150;65054;-82
2021/01/10 08:56:43;;;;;;;170.40;99.33;;;;;;;-0.61;83.13;99686.48;119357;1150;65101;-82
2021/01/10 08:59:11;;;;;;;167.70;101.47;;;;;;;-0.56;83.31;99696.91;118636;1150;65226;-82
2021/01/10 09:01:38;;;;;;;161.25;97.60;;;;;;;-0.46;83.41;99693.31;119175;1151;65597;-89
2021/01/10 09:04:13;;;;;;;171.30;100.20;;;;;;;-0.38;83.46;99698.46;118974;1151;65174;-86
2021/01/10 09:07:04;;;;;;;152.05;92.50;;;;;;;-0.38;82.92;99704.56;118894;1151;65182;-77
2021/01/10 09:09:31;;;;;;;154.80;89.10;;;;;;;-0.36;83.28;99696.70;119258;1151;65124;-80
2021/01/10 09:12:17;;;;;;;138.93;87.33;;;;;;;-0.34;82.79;99690.56;119353;1150;65102;-81
2021/01/10 09:14:53;;;;;;;121.73;76.40;;;;;;;-0.26;82.82;99690.48;119356;1151;65114;-80
2021/01/10 09:17:52;;;;;;;115.73;70.70;;;;;;;-0.18;83.39;99685.15;119401;1151;65037;-81
2021/01/10 09:20:29;;;;;;;96.20;57.83;;;;;;;-0.13;82.95;99692.06;119055;1150;65085;-92
2021/01/10 09:22:57;;;;;;;92.00;54.35;;;;;;;-0.08;82.71;99697.22;118923;1151;65148;-85
2021/01/10 09:25:25;;;;;;;83.05;52.05;;;;;;;-0.03;82.37;99698.92;119432;1151;65117;-82
2021/01/10 09:28:15;;;;;;;89.00;53.40;;;;;;;0.04;82.57;99694.45;119365;1151;65129;-89
2021/01/10 09:30:57;;;;;;;91.27;53.83;;;;;;;0.07;82.57;99689.16;119283;1150;65173;-85
2021/01/10 09:33:30;;;;;;;84.03;51.43;;;;;;;0.09;81.75;99691.78;119462;1150;65120;-79
2021/01/10 09:35:59;;;;;;;81.50;51.53;;;;;;;0.11;81.66;99690.88;119251;1150;65679;-80
2021/01/10 09:38:35;;;;;;;87.20;50.50;;;;;;;0.14;81.87;99690.83;119255;1151;65168;-80
2021/01/10 09:41:14;;;;;;;81.60;49.30;;;;;;;0.20;81.67;99685.48;119273;1150;65635;-79
2021/01/10 09:43:49;;;;;;;68.67;42.87;;;;;;;0.25;81.79;99674.09;119258;1151;65076;-83
2021/01/10 09:46:31;;;;;;;64.03;40.37;;;;;;;0.29;81.44;99687.14;119090;1151;65226;-82
2021/01/10 09:49:19;;;;;;;70.27;44.13;;;;;;;0.36;81.74;99678.27;119424;1151;65108;-83
2021/01/10 09:51:57;;;;;;;59.40;37.50;;;;;;;0.41;81.21;99683.45;118929;1150;65127;-85
2021/01/10 09:54:27;;;;;;;59.25;36.95;;;;;;;0.43;80.69;99684.31;118544;1151;65181;-84
2021/01/10 09:56:56;;;;;;;56.80;38.27;;;;;;;0.47;81.29;99679.88;119384;1150;65148;-80
2021/01/10 09:59:36;;;;;;;60.25;38.55;;;;;;;0.52;81.02;99675.43;119194;1150;65102;-80
2021/01/10 10:02:38;;;;;;;57.83;37.70;;;;;;;0.62;80.98;99674.41;118637;1151;65188;-79
2021/01/10 10:05:25;;;;;;;55.20;34.90;;;;;;;0.67;80.88;99671.72;118778;1150;65058;-82
2021/01/10 10:08:00;;;;;;;58.03;36.03;;;;;;;0.72;80.33;99672.51;119204;1150;65213;-86
2021/01/10 10:10:31;;;;;;;58.33;35.97;;;;;;;0.78;80.14;99667.16;118684;1151;65117;-85
2021/01/10 10:13:02;;;;;;;50.13;32.00;;;;;;;0.83;80.53;99662.70;118603;1149;65120;-80
2021/01/10 10:15:35;;;;;;;50.52;31.30;;;;;;;0.87;80.38;99667.88;119166;1150;65152;-82
2021/01/10 10:18:02;;;;;;;48.90;29.70;;;;;;;0.92;79.89;99665.15;119336;1150;65137;-82
2021/01/10 10:20:29;;;;;;;42.70;28.33;;;;;;;0.96;79.75;99658.97;119158;1151;65274;-84
2021/01/10 10:23:07;;;;;;;53.60;30.83;;;;;;;1.03;79.56;99663.23;119191;1151;65127;-85
2021/01/10 10:25:34;;;;;;;47.73;29.07;;;;;;;1.10;79.52;99654.33;119401;1150;65114;-85
2021/01/10 10:28:01;;;;;;;46.43;30.03;;;;;;;1.18;78.87;99654.20;118869;1151;65028;-81
2021/01/10 10:30:28;;;;;;;47.25;27.95;;;;;;;1.25;78.43;99644.46;118726;1151;66409;-81
2021/01/10 10:32:55;;;;;;;42.87;28.03;;;;;;;1.33;78.53;99633.81;119260;1150;65124;-83
2021/01/10 10:35:22;;;;;;;44.10;28.60;;;;;;;1.40;78.25;99638.06;119357;1151;65140;-82
2021/01/10 10:37:50;;;;;;;44.07;27.03;;;;;;;1.43;77.72;99633.61;119316;1150;65098;-81
2021/01/10 10:40:17;;;;;;;47.20;29.10;;;;;;;1.47;78.09;99624.75;119372;1151;65124;-82
2021/01/10 10:42:44;;;;;;;44.57;27.23;;;;;;;1.51;77.54;99626.44;119325;1150;65163;-81
2021/01/10 10:45:11;;;;;;;42.95;26.25;;;;;;;1.58;77.96;99628.93;119228;1150;65258;-81
2021/01/10 10:47:38;;;;;;;43.30;27.43;;;;;;;1.63;77.66;99622.68;119050;1149;65194;-81
2021/01/10 10:50:07;;;;;;;40.50;26.20;;;;;;;1.66;77.30;99625.27;118439;1151;65111;-81
2021/01/10 10:52:34;;;;;;;41.90;26.80;;;;;;;1.68;77.17;99614.71;118892;1151;65226;-82
2021/01/10 10:55:01;;;;;;;36.33;23.47;;;;;;;1.69;75.30;99614.70;119330;1151;65117;-82
2021/01/10 10:57:27;;;;;;;35.05;24.20;;;;;;;1.64;75.54;99611.30;119020;1151;65050;-83
2021/01/10 10:59:54;;;;;;;37.23;23.27;;;;;;;1.62;74.76;99607.83;118886;1150;65519;-81
2021/01/10 11:02:20;;;;;;;34.93;23.20;;;;;;;1.58;75.30;99610.55;118712;1151;65484;-81
2021/01/10 11:04:47;;;;;;;35.63;23.77;;;;;;;1.59;75.80;99615.78;118999;1150;65148;-81
2021/01/10 11:07:14;;;;;;;36.10;22.37;;;;;;;1.69;74.97;99603.33;118530;1151;65081;-81
2021/01/10 11:09:42;;;;;;;32.17;19.87;;;;;;;1.73;74.76;99602.34;118945;1151;65248;-81
2021/01/10 11:12:10;;;;;;;35.95;22.20;;;;;;;1.77;74.86;99604.02;118807;1151;65127;-80
2021/01/10 11:14:37;;;;;;;35.93;21.97;;;;;;;1.83;74.59;99609.14;118505;1150;65530;-80
2021/01/10 11:17:10;;;;;;;32.97;20.53;;;;;;;1.82;74.65;99604.80;118488;1149;65105;-81
2021/01/10 11:19:38;;;;;;;37.50;24.50;;;;;;;1.80;74.34;99603.95;118969;1150;65043;-80
2021/01/10 11:22:05;;;;;;;35.63;22.37;;;;;;;1.86;74.40;99603.81;119281;1150;65137;-81
2021/01/10 11:24:33;;;;;;;33.25;21.70;;;;;;;1.91;73.73;99601.95;119107;1151;65162;-80